Terminal Aerodrome Forecast
Issued by NWS

Home | Current Version | Previous Version | Text Only | Print | Product List | Glossary On
Versions: 1 2 3 4 5 6 7 8 9 10 11 12 13 14
985
FTUS45 KTFX 271139 AAB
TAFHVR
TAF AMD
KHVR 271139Z 2712/2812 08007KT P6SM SCT015 BKN025
      TEMPO 2714/2717 -SHRA BKN020
     FM271700 36010KT P6SM VCSH SCT015 BKN030 PROB30 2803/2806 -SHRA
      BKN020
     FM280600 35006KT P6SM BKN025 PROB30 2806/2812 4SM -SHRA BKN015=

USA.gov is the U.S. government's official web portal to all federal, state and local government web resources and services.